createdAt,value
2023-05-15T00:01:15.671Z,9.67
2023-05-15T00:04:21.660Z,9.72
2023-05-15T00:07:28.572Z,9.63
2023-05-15T00:10:34.457Z,9.57
2023-05-15T00:13:46.249Z,9.55
2023-05-15T00:16:52.570Z,9.47
2023-05-15T00:20:01.856Z,9.42
2023-05-15T00:23:07.854Z,9.41
2023-05-15T00:26:16.010Z,9.38
2023-05-15T00:29:24.481Z,9.36
2023-05-15T00:32:31.265Z,9.34
2023-05-15T00:35:37.298Z,9.39
2023-05-15T00:38:48.392Z,9.39
2023-05-15T00:41:59.048Z,9.27
2023-05-15T00:45:14.421Z,9.33
2023-05-15T00:48:22.937Z,9.34
2023-05-15T00:51:31.588Z,9.31
2023-05-15T00:54:37.791Z,9.35
2023-05-15T00:57:47.339Z,9.39
2023-05-15T01:00:57.404Z,9.34
2023-05-15T01:04:06.864Z,9.34
2023-05-15T01:07:13.171Z,9.31
2023-05-15T01:10:24.417Z,9.29
2023-05-15T01:13:32.068Z,9.37
2023-05-15T01:16:41.871Z,9.34
2023-05-15T01:19:57.362Z,9.37
2023-05-15T01:23:18.705Z,9.33
2023-05-15T01:27:04.804Z,9.38
2023-05-15T01:30:25.420Z,9.41
2023-05-15T01:33:39.306Z,9.39
2023-05-15T01:36:56.906Z,9.34
2023-05-15T01:40:09.691Z,9.29
2023-05-15T01:43:25.346Z,9.31
2023-05-15T01:46:48.214Z,9.30
2023-05-15T01:50:00.542Z,9.26
2023-05-15T01:53:12.567Z,9.22
2023-05-15T01:56:22.351Z,9.30
2023-05-15T01:59:42.079Z,9.09
2023-05-15T02:02:53.736Z,9.17
2023-05-15T02:06:00.525Z,9.13
2023-05-15T02:09:08.015Z,9.14
2023-05-15T02:12:16.512Z,9.11
2023-05-15T02:15:25.156Z,9.06
2023-05-15T02:18:34.883Z,9.05
2023-05-15T02:21:41.197Z,8.96
2023-05-15T02:24:48.467Z,9.08
2023-05-15T02:28:04.110Z,9.05
2023-05-15T02:31:24.749Z,9.01
2023-05-15T02:34:49.004Z,9.06
2023-05-15T02:38:03.690Z,9.04
2023-05-15T02:41:12.973Z,9.13
2023-05-15T02:44:22.829Z,9.18
2023-05-15T02:47:35.512Z,9.13
2023-05-15T02:50:45.321Z,9.13
2023-05-15T02:53:52.476Z,8.98
2023-05-15T02:57:01.818Z,8.96
2023-05-15T03:00:12.101Z,8.85
2023-05-15T03:03:25.021Z,8.98
2023-05-15T03:06:33.642Z,9.02
2023-05-15T03:09:40.557Z,9.02
2023-05-15T03:12:46.578Z,9.02
2023-05-15T03:15:53.454Z,9.05
2023-05-15T03:18:59.418Z,9.08
2023-05-15T03:22:09.475Z,9.03
2023-05-15T03:25:16.109Z,9.09
2023-05-15T03:28:22.820Z,9.11
2023-05-15T03:31:28.867Z,9.03
2023-05-15T03:34:35.865Z,9.07
2023-05-15T03:37:44.520Z,9.12
2023-05-15T03:40:51.382Z,9.11
2023-05-15T03:43:57.650Z,9.06
2023-05-15T03:47:04.652Z,9.09
2023-05-15T03:50:13.026Z,9.07
2023-05-15T03:53:22.557Z,9.11
2023-05-15T03:56:28.579Z,9.16
2023-05-15T03:59:35.436Z,9.08
2023-05-15T04:02:42.711Z,9.05
2023-05-15T04:05:50.515Z,9.08
2023-05-15T04:08:59.055Z,9.14
2023-05-15T04:12:06.269Z,9.05
2023-05-15T04:15:21.842Z,9.16
2023-05-15T04:18:28.737Z,9.08
2023-05-15T04:21:34.701Z,9.07
2023-05-15T04:24:44.237Z,9.14
2023-05-15T04:27:50.406Z,9.21
2023-05-15T04:30:58.959Z,9.14
2023-05-15T04:34:05.457Z,9.16
2023-05-15T04:37:12.427Z,9.19
2023-05-15T04:40:21.533Z,9.30
2023-05-15T04:43:28.344Z,9.29
2023-05-15T04:46:37.729Z,9.37
2023-05-15T04:49:45.725Z,9.50
2023-05-15T04:52:51.619Z,9.64
2023-05-15T04:56:01.093Z,9.70
2023-05-15T04:59:07.106Z,9.71
2023-05-15T05:02:14.339Z,9.69
2023-05-15T05:05:20.961Z,9.80
2023-05-15T05:08:27.702Z,9.85
2023-05-15T05:11:39.550Z,9.90
2023-05-15T05:14:48.402Z,9.85
2023-05-15T05:17:54.556Z,10.00
2023-05-15T05:21:04.329Z,9.87
2023-05-15T05:24:12.535Z,9.92
2023-05-15T05:27:22.280Z,9.91
2023-05-15T05:30:28.228Z,9.91
2023-05-15T05:33:36.724Z,10.00
2023-05-15T05:36:42.634Z,9.93
2023-05-15T05:39:55.452Z,9.88
2023-05-15T05:43:11.326Z,9.87
2023-05-15T05:46:18.159Z,9.95
2023-05-15T05:49:24.416Z,9.83
2023-05-15T05:52:32.794Z,9.88
2023-05-15T05:55:38.893Z,9.85
2023-05-15T05:58:48.578Z,9.86
2023-05-15T06:01:54.634Z,9.96
2023-05-15T06:05:01.740Z,9.79
2023-05-15T06:08:08.393Z,9.77
2023-05-15T06:11:15.091Z,9.80
2023-05-15T06:14:23.616Z,9.81
2023-05-15T06:17:30.308Z,9.74
2023-05-15T06:20:36.670Z,9.78
2023-05-15T06:23:43.325Z,9.68
2023-05-15T06:26:50.422Z,9.69
2023-05-15T06:30:05.022Z,9.71
2023-05-15T06:33:10.970Z,9.84
2023-05-15T06:36:17.717Z,10.16
2023-05-15T06:39:26.982Z,10.26
2023-05-15T06:42:33.823Z,10.39
2023-05-15T06:45:43.110Z,10.23
2023-05-15T06:48:51.335Z,10.40
2023-05-15T06:51:59.288Z,10.33
2023-05-15T06:55:05.905Z,10.21
2023-05-15T06:58:12.029Z,10.11
2023-05-15T07:01:21.482Z,10.00
2023-05-15T07:04:27.682Z,10.20
2023-05-15T07:07:34.549Z,10.34
2023-05-15T07:10:40.433Z,10.50
2023-05-15T07:13:47.400Z,10.50
2023-05-15T07:16:56.293Z,10.44
2023-05-15T07:20:17.121Z,10.49
2023-05-15T07:23:26.780Z,10.77
2023-05-15T07:26:40.995Z,10.55
2023-05-15T07:29:52.791Z,10.69
2023-05-15T07:33:02.188Z,10.48
2023-05-15T07:36:11.719Z,10.20
2023-05-15T07:39:22.739Z,10.00
2023-05-15T07:42:29.388Z,10.08
2023-05-15T07:45:36.250Z,10.35
2023-05-15T07:48:44.953Z,10.39
2023-05-15T07:51:52.081Z,10.26
2023-05-15T07:54:59.013Z,10.42
2023-05-15T07:58:06.722Z,10.33
2023-05-15T08:01:20.688Z,10.36
2023-05-15T08:04:30.011Z,10.43
2023-05-15T08:07:38.235Z,10.43
2023-05-15T08:10:45.035Z,10.24
2023-05-15T08:13:51.093Z,10.30
2023-05-15T08:16:59.958Z,10.33
2023-05-15T08:20:29.269Z,10.12
2023-05-15T08:23:39.516Z,9.92
2023-05-15T08:26:45.677Z,9.92
2023-05-15T08:29:53.174Z,10.11
2023-05-15T08:33:00.382Z,10.30
2023-05-15T08:36:11.529Z,10.34
2023-05-15T08:39:22.555Z,10.44
2023-05-15T08:42:43.290Z,10.61
2023-05-15T08:45:58.779Z,10.60
2023-05-15T08:49:27.069Z,11.03
2023-05-15T08:52:37.589Z,10.80
2023-05-15T08:55:45.499Z,11.02
2023-05-15T08:58:52.705Z,11.52
2023-05-15T09:02:00.475Z,11.54
2023-05-15T09:05:13.428Z,11.48
2023-05-15T09:08:25.981Z,11.46
2023-05-15T09:11:36.599Z,11.62
2023-05-15T09:14:44.263Z,11.34
2023-05-15T09:17:50.545Z,11.13
2023-05-15T09:20:57.352Z,11.05
2023-05-15T09:24:28.479Z,11.35
2023-05-15T09:27:49.048Z,11.57
2023-05-15T09:31:05.016Z,11.26
2023-05-15T09:34:15.011Z,11.30
2023-05-15T09:37:34.298Z,11.40
2023-05-15T09:40:44.007Z,11.35
2023-05-15T09:43:49.853Z,11.39
2023-05-15T09:46:57.329Z,11.27
2023-05-15T09:50:03.384Z,11.24
2023-05-15T09:53:14.191Z,11.34
2023-05-15T09:56:23.219Z,11.48
2023-05-15T09:59:30.115Z,11.63
2023-05-15T10:02:36.625Z,11.91
2023-05-15T10:05:46.646Z,12.34
2023-05-15T10:08:56.261Z,12.70
2023-05-15T10:12:09.025Z,12.51
2023-05-15T10:15:16.954Z,12.28
2023-05-15T10:18:30.744Z,11.99
2023-05-15T10:21:40.130Z,11.86
2023-05-15T10:24:52.144Z,11.97
2023-05-15T10:28:02.934Z,12.10
2023-05-15T10:31:14.007Z,11.45
2023-05-15T10:34:21.747Z,11.68
2023-05-15T10:37:30.645Z,11.96
2023-05-15T10:40:41.309Z,11.77
2023-05-15T10:43:53.329Z,11.83
2023-05-15T10:46:59.671Z,11.74
2023-05-15T10:50:08.449Z,12.03
2023-05-15T10:53:14.673Z,11.90
2023-05-15T10:56:21.765Z,11.79
2023-05-15T10:59:37.936Z,12.22
2023-05-15T11:02:44.796Z,12.16
2023-05-15T11:06:13.169Z,12.16
2023-05-15T11:09:41.806Z,12.11
2023-05-15T11:13:05.613Z,12.10
2023-05-15T11:16:16.587Z,12.20
2023-05-15T11:19:35.653Z,12.22
2023-05-15T11:22:42.343Z,12.10
2023-05-15T11:25:58.862Z,12.40
2023-05-15T11:29:23.364Z,12.93
2023-05-15T11:32:51.320Z,13.11
2023-05-15T11:36:03.209Z,13.21
2023-05-15T11:39:14.919Z,12.92
2023-05-15T11:42:22.721Z,13.28
2023-05-15T11:45:28.992Z,13.22
2023-05-15T11:48:44.581Z,13.43
2023-05-15T11:51:54.069Z,13.00
2023-05-15T11:55:03.233Z,13.09
2023-05-15T11:58:16.562Z,12.90
2023-05-15T12:01:23.332Z,13.34
2023-05-15T12:04:32.212Z,13.75
2023-05-15T12:07:42.168Z,13.24
2023-05-15T12:10:52.262Z,12.49
2023-05-15T12:13:59.821Z,12.62
2023-05-15T12:17:07.039Z,12.98
2023-05-15T12:20:21.122Z,13.85
2023-05-15T12:23:29.332Z,13.58
2023-05-15T12:26:39.694Z,13.59
2023-05-15T12:29:46.823Z,13.71
2023-05-15T12:32:54.712Z,13.48
2023-05-15T12:36:03.343Z,13.69
2023-05-15T12:39:11.476Z,14.20
2023-05-15T12:42:20.766Z,14.09
2023-05-15T12:45:29.112Z,14.41
2023-05-15T12:48:36.360Z,14.52
2023-05-15T12:51:48.813Z,14.68
2023-05-15T12:54:58.624Z,14.37
2023-05-15T12:58:11.893Z,14.06
2023-05-15T13:01:18.934Z,14.08
2023-05-15T13:04:26.354Z,13.88
2023-05-15T13:07:35.859Z,13.96
2023-05-15T13:10:42.821Z,14.17
2023-05-15T13:13:52.338Z,14.59
2023-05-15T13:17:05.119Z,14.78
2023-05-15T13:20:12.617Z,14.68
2023-05-15T13:23:25.276Z,14.61
2023-05-15T13:26:31.153Z,14.50
2023-05-15T13:29:38.540Z,14.62
2023-05-15T13:32:44.840Z,14.88
2023-05-15T13:35:52.137Z,14.93
2023-05-15T13:39:06.375Z,15.46
2023-05-15T13:42:13.181Z,15.03
2023-05-15T13:45:20.360Z,15.31
2023-05-15T13:48:27.283Z,15.01
2023-05-15T13:51:33.390Z,14.83
2023-05-15T13:54:42.908Z,15.17
2023-05-15T13:57:48.997Z,15.43
2023-05-15T14:00:55.941Z,15.56
2023-05-15T14:04:05.092Z,15.33
2023-05-15T14:07:11.895Z,15.03
2023-05-15T14:10:24.347Z,15.14
2023-05-15T14:13:32.006Z,15.20
2023-05-15T14:16:38.038Z,15.21
2023-05-15T14:19:45.101Z,15.45
2023-05-15T14:22:54.132Z,15.18
2023-05-15T14:26:05.564Z,15.10
2023-05-15T14:29:11.589Z,15.03
2023-05-15T14:32:19.274Z,14.96
2023-05-15T14:35:32.237Z,14.89
2023-05-15T14:38:45.841Z,14.92
2023-05-15T14:41:54.520Z,15.19
2023-05-15T14:45:14.983Z,15.20
2023-05-15T14:48:27.422Z,15.36
2023-05-15T14:51:41.741Z,15.62
2023-05-15T14:54:56.930Z,15.82
2023-05-15T14:58:11.632Z,15.23
2023-05-15T15:01:22.278Z,14.93
2023-05-15T15:04:30.736Z,15.06
2023-05-15T15:08:05.126Z,15.09
2023-05-15T15:11:12.588Z,15.09
2023-05-15T15:14:24.437Z,15.37
2023-05-15T15:17:31.269Z,15.53
2023-05-15T15:20:37.460Z,15.70
2023-05-15T15:23:45.031Z,15.28
2023-05-15T15:26:53.256Z,14.92
2023-05-15T15:30:04.264Z,14.87
2023-05-15T15:33:10.339Z,14.46
2023-05-15T15:36:17.308Z,14.20
2023-05-15T15:39:23.717Z,13.93
2023-05-15T15:42:31.715Z,13.89
2023-05-15T15:45:40.419Z,13.87
2023-05-15T15:48:47.156Z,13.74
2023-05-15T15:51:53.153Z,13.65
2023-05-15T15:54:59.959Z,13.59
2023-05-15T15:58:06.583Z,13.62
2023-05-15T16:01:16.229Z,13.59
2023-05-15T16:04:23.197Z,13.69
2023-05-15T16:07:30.463Z,13.76
2023-05-15T16:10:39.363Z,13.56
2023-05-15T16:13:46.497Z,13.46
2023-05-15T16:16:55.304Z,13.65
2023-05-15T16:20:02.177Z,13.43
2023-05-15T16:23:09.647Z,13.51
2023-05-15T16:26:16.404Z,13.65
2023-05-15T16:29:22.932Z,13.68
2023-05-15T16:32:34.232Z,13.72
2023-05-15T16:35:40.262Z,13.64
2023-05-15T16:38:47.403Z,13.49
2023-05-15T16:41:53.416Z,13.24
2023-05-15T16:45:00.236Z,13.20
2023-05-15T16:48:09.630Z,13.15
2023-05-15T16:51:17.184Z,12.75
2023-05-15T16:54:23.183Z,12.93
2023-05-15T16:57:29.924Z,12.80
2023-05-15T17:00:35.836Z,12.90
2023-05-15T17:03:45.597Z,12.65
2023-05-15T17:06:51.838Z,12.57
2023-05-15T17:09:58.738Z,12.47
2023-05-15T17:13:04.941Z,12.43
2023-05-15T17:16:11.791Z,12.36
2023-05-15T17:19:20.507Z,12.27
2023-05-15T17:22:27.373Z,12.19
2023-05-15T17:25:36.689Z,12.22
2023-05-15T17:28:43.742Z,12.20
2023-05-15T17:31:50.281Z,12.18
2023-05-15T17:34:59.713Z,12.12
2023-05-15T17:38:05.716Z,12.19
2023-05-15T17:41:12.453Z,12.07
2023-05-15T17:44:18.394Z,12.15
2023-05-15T17:47:25.189Z,12.14
2023-05-15T17:50:38.154Z,12.04
2023-05-15T17:53:45.049Z,12.08
2023-05-15T17:56:53.821Z,11.99
2023-05-15T18:00:00.776Z,11.93
2023-05-15T18:03:18.129Z,11.96
2023-05-15T18:06:28.493Z,12.02
2023-05-15T18:09:34.463Z,11.99
2023-05-15T18:12:41.351Z,12.08
2023-05-15T18:15:47.481Z,12.11
2023-05-15T18:18:55.354Z,12.14
2023-05-15T18:22:04.404Z,11.98
2023-05-15T18:25:11.927Z,11.89
2023-05-15T18:28:21.014Z,11.67
2023-05-15T18:31:27.948Z,11.73
2023-05-15T18:34:34.702Z,11.52
2023-05-15T18:37:44.584Z,11.37
2023-05-15T18:40:51.131Z,11.34
2023-05-15T18:43:58.216Z,11.40
2023-05-15T18:47:04.745Z,11.35
2023-05-15T18:50:14.443Z,11.33
2023-05-15T18:53:23.386Z,11.33
2023-05-15T18:56:30.112Z,11.35
2023-05-15T18:59:38.851Z,11.46
2023-05-15T19:02:45.907Z,11.58
2023-05-15T19:05:52.472Z,11.53
2023-05-15T19:09:01.918Z,11.60
2023-05-15T19:12:08.969Z,11.50
2023-05-15T19:15:18.395Z,11.49
2023-05-15T19:18:24.453Z,11.48
2023-05-15T19:21:55.156Z,11.48
2023-05-15T19:25:03.867Z,11.32
2023-05-15T19:28:11.202Z,11.26
2023-05-15T19:31:30.891Z,11.04
2023-05-15T19:34:38.522Z,11.01
2023-05-15T19:37:45.817Z,11.00
2023-05-15T19:40:55.220Z,11.01
2023-05-15T19:44:02.293Z,10.90
2023-05-15T19:47:12.074Z,10.88
2023-05-15T19:50:22.714Z,10.82
2023-05-15T19:53:30.662Z,10.58
2023-05-15T19:56:41.345Z,10.52
2023-05-15T19:59:53.774Z,10.45
2023-05-15T20:03:00.990Z,10.54
2023-05-15T20:06:08.308Z,10.47
2023-05-15T20:09:20.408Z,10.48
2023-05-15T20:12:32.661Z,10.43
2023-05-15T20:15:40.203Z,10.40
2023-05-15T20:18:48.250Z,10.29
2023-05-15T20:22:07.407Z,10.28
2023-05-15T20:25:15.454Z,10.32
2023-05-15T20:28:44.329Z,10.30
2023-05-15T20:31:51.976Z,10.25
2023-05-15T20:34:58.732Z,10.12
2023-05-15T20:38:05.542Z,10.10
2023-05-15T20:41:11.540Z,10.08
2023-05-15T20:44:21.279Z,9.94
2023-05-15T20:47:27.256Z,9.91
2023-05-15T20:50:34.231Z,9.81
2023-05-15T20:53:46.246Z,9.82
2023-05-15T20:56:53.050Z,9.77
2023-05-15T21:00:01.525Z,9.72
2023-05-15T21:03:09.712Z,9.68
2023-05-15T21:06:17.677Z,9.58
2023-05-15T21:09:24.552Z,9.66
2023-05-15T21:12:34.914Z,9.64
2023-05-15T21:15:44.628Z,9.68
2023-05-15T21:18:50.618Z,9.63
2023-05-15T21:21:57.498Z,9.71
2023-05-15T21:25:04.875Z,9.71
2023-05-15T21:28:11.756Z,9.57
2023-05-15T21:31:20.339Z,9.44
2023-05-15T21:34:27.071Z,9.29
2023-05-15T21:37:34.499Z,9.25
2023-05-15T21:40:41.297Z,9.32
2023-05-15T21:43:52.592Z,9.26
2023-05-15T21:47:02.059Z,9.16
2023-05-15T21:50:09.980Z,9.11
2023-05-15T21:53:17.480Z,9.05
2023-05-15T21:56:26.597Z,9.08
2023-05-15T21:59:35.322Z,9.03
2023-05-15T22:02:43.951Z,8.95
2023-05-15T22:05:51.954Z,8.91
2023-05-15T22:08:57.932Z,8.86
2023-05-15T22:12:04.964Z,8.89
2023-05-15T22:15:16.489Z,8.88
2023-05-15T22:18:26.476Z,8.87
2023-05-15T22:21:34.492Z,8.89
2023-05-15T22:24:41.186Z,8.87
2023-05-15T22:27:47.082Z,8.85
2023-05-15T22:30:59.823Z,8.80
2023-05-15T22:34:15.132Z,8.90
2023-05-15T22:37:22.142Z,8.82
2023-05-15T22:40:28.487Z,8.80
2023-05-15T22:43:35.498Z,8.86
2023-05-15T22:46:41.414Z,8.92
2023-05-15T22:49:50.899Z,8.95
2023-05-15T22:52:57.493Z,8.88
2023-05-15T22:56:04.140Z,8.86
2023-05-15T22:59:10.065Z,8.89
2023-05-15T23:02:16.804Z,8.87
2023-05-15T23:05:26.292Z,8.84
2023-05-15T23:08:37.404Z,8.85
2023-05-15T23:11:43.400Z,8.91
2023-05-15T23:14:53.119Z,8.90
2023-05-15T23:18:05.147Z,8.82
2023-05-15T23:21:14.488Z,8.88
2023-05-15T23:24:20.308Z,8.86
2023-05-15T23:27:33.468Z,8.91
2023-05-15T23:30:48.645Z,8.92
2023-05-15T23:33:55.467Z,8.82
2023-05-15T23:37:05.357Z,8.73
2023-05-15T23:40:13.648Z,8.64
2023-05-15T23:43:19.637Z,8.66
2023-05-15T23:46:26.470Z,8.50
2023-05-15T23:49:33.801Z,8.43
2023-05-15T23:52:46.519Z,8.40
2023-05-15T23:55:52.500Z,8.30
2023-05-15T23:59:01.744Z,8.18
